Fort-de-France, Martinique
Current Conditions -  °F | °C
As of 11:30 AM on Wednesday 26 Nov 2014 (Local Time) from TFFF Reporting Station
Broken Clouds Broken Clouds  
Wind Chill: 84°   Ceiling: 2700
Heat Index: 91°   Visibility: 6mi
Dew Point: 73°   Wind: 14mph
Humidity: 70%   Direction: 70°ENE
Pressure: 29.94"   Gusts: NA
Location:  14.6°N, 61.08°W
Report Text: TFFF 261530Z AUTO 07012KT 9999 BKN027/// BKN043/// BKN054//////CB 29/23 Q1014
Loading
Personal Weather Stations






























Interactive Weather Map New forecast layout! Learn more

10-Day Weather Forecast

Advertisements
Track Severe Weather on mobile